Etusivu
METAR-TAF:

METAR-TAF

Lentoasemat :

Bermuda, Bermuda

Leveyspiiri: 32-22N, Pituuspiiri: 064-41W, korkeus merenpinnasta: 6 m

Tämänhetkinen sää

Tämä raportti tehtiin 1 tunti ja 10 minuuttia sitten, kello 10.55 UTC
Tuuli 12 kn idästä
Lämpötila 26°C
Kosteus 70%
Ilmanpaine 1017 hPa
Näkyvyys 10 km tai enemmän
Muutamia pilviä 3500 ft:n korkeudessa
Hajanaisia pilviä 6000 ft:n korkeudessa
Hajanaisia pilviä 30000 ft:n korkeudessa

METAR: TXKF 231055Z 08012KT 9999 FEW035 SCT060 SCT300 26/20 Q1017

Aika: 09:05 (12:05 UTC)

Sääennuste

Tämä raportti tehtiin 30 minuuttia sitten, kello 11.35 UTC
Ennuste voimassa 23. päivästä klo 12 UTC - 24. päivään klo 12 UTC
Tuuli 12 kn idästä
Näkyvyys 10 km tai enemmän
Muutamia pilviä 3500 ft:n korkeudessa
Hajanaisia pilviä 6000 ft:n korkeudessa

TAF: TXKF 231135Z 2312/2412 08012KT 9999 FEW035 SCT060

Säähavainnot ja -ennusteet yli 4000 lentoasemalta (METAR- ja TAF-raportit).

Käytössä olevat sääasemat on merkitty karttaan keltaisilla ja punaisilla pisteillä.

Aseta hiiri pisteen päälle nähdäksesi sääaseman nimen.

Klikkaa sitten nähdäksesi säähavainnot ja -ennusteet.

Kartan vaihtaminen: klikkaa mustalla rastilla varustettuja vihreitä pisteitä, niin voit zoomata sisään; viivalla varustettua vihreää pistettä, niin voit zoomata ulos tai vihreitä nuolia, niin pääset viereisille kartoille.


METAR-TAF: